createdAt,value
2022-10-19T00:01:12.102Z,101199.25
2022-10-19T00:03:39.750Z,101197.84
2022-10-19T00:06:26.192Z,101191.69
2022-10-19T00:09:18.181Z,101206.09
2022-10-19T00:11:50.043Z,101203.56
2022-10-19T00:14:22.872Z,101200.38
2022-10-19T00:16:51.212Z,101201.19
2022-10-19T00:19:21.988Z,101199.66
2022-10-19T00:24:16.054Z,101195.88
2022-10-19T00:26:43.579Z,101200.91
2022-10-19T00:29:12.466Z,101197.69
2022-10-19T00:31:39.342Z,101198.41
2022-10-19T00:34:06.147Z,101194.09
2022-10-19T00:36:35.076Z,101185.97
2022-10-19T00:39:03.936Z,101175.88
2022-10-19T00:41:32.871Z,101183.44
2022-10-19T00:44:02.595Z,101180.34
2022-10-19T00:46:31.997Z,101178.13
2022-10-19T00:49:04.011Z,101191.53
2022-10-19T00:51:33.487Z,101187.47
2022-10-19T00:54:02.651Z,101180.91
2022-10-19T00:56:29.487Z,101179.78
2022-10-19T00:58:56.446Z,101170.28
2022-10-19T01:01:27.329Z,101167.50
2022-10-19T01:03:54.080Z,101166.38
2022-10-19T01:06:21.220Z,101162.75
2022-10-19T01:08:47.862Z,101170.84
2022-10-19T01:11:14.583Z,101167.38
2022-10-19T01:14:05.578Z,101167.38
2022-10-19T01:17:17.306Z,101162.31
2022-10-19T01:20:05.997Z,101152.38
2022-10-19T01:23:03.670Z,101146.66
2022-10-19T01:25:39.375Z,101152.66
2022-10-19T01:28:17.233Z,101157.13
2022-10-19T01:30:58.892Z,101151.81
2022-10-19T01:33:41.453Z,101144.69
2022-10-19T01:36:29.926Z,101142.59
2022-10-19T01:39:13.006Z,101143.59
2022-10-19T01:41:58.194Z,101143.94
2022-10-19T01:44:48.384Z,101144.25
2022-10-19T01:47:31.170Z,101145.94
2022-10-19T01:50:16.595Z,101136.69
2022-10-19T01:52:44.056Z,101142.94
2022-10-19T01:55:14.814Z,101148.00
2022-10-19T01:57:47.041Z,101143.53
2022-10-19T02:00:16.566Z,101135.78
2022-10-19T02:02:47.882Z,101133.81
2022-10-19T02:05:17.791Z,101127.09
2022-10-19T02:07:49.512Z,101126.50
2022-10-19T02:10:16.329Z,101133.06
2022-10-19T02:12:43.928Z,101140.50
2022-10-19T02:15:14.681Z,101146.94
2022-10-19T02:17:49.205Z,101145.13
2022-10-19T02:20:17.091Z,101138.94
2022-10-19T02:22:44.391Z,101142.72
2022-10-19T02:25:12.188Z,101140.88
2022-10-19T02:27:43.594Z,101136.44
2022-10-19T02:30:13.034Z,101128.59
2022-10-19T02:32:39.963Z,101140.06
2022-10-19T02:35:07.266Z,101141.75
2022-10-19T02:37:34.226Z,101134.06
2022-10-19T02:40:01.264Z,101131.94
2022-10-19T02:42:50.987Z,101138.63
2022-10-19T02:45:23.742Z,101137.34
2022-10-19T02:47:55.133Z,101139.00
2022-10-19T02:50:22.593Z,101139.81
2022-10-19T02:52:49.270Z,101136.66
2022-10-19T02:55:16.108Z,101126.53
2022-10-19T02:57:42.857Z,101129.34
2022-10-19T03:00:10.797Z,101133.22
2022-10-19T03:02:37.638Z,101137.84
2022-10-19T03:05:04.814Z,101130.22
2022-10-19T03:07:31.736Z,101137.06
2022-10-19T03:09:58.541Z,101137.00
2022-10-19T03:12:25.213Z,101132.72
2022-10-19T03:14:51.864Z,101142.75
2022-10-19T03:17:18.630Z,101133.44
2022-10-19T03:19:45.454Z,101136.84
2022-10-19T03:22:13.864Z,101145.06
2022-10-19T03:24:40.620Z,101141.56
2022-10-19T03:27:07.347Z,101133.56
2022-10-19T03:29:33.994Z,101133.88
2022-10-19T03:32:00.748Z,101141.34
2022-10-19T03:34:27.535Z,101150.06
2022-10-19T03:36:54.317Z,101140.91
2022-10-19T03:39:20.992Z,101155.03
2022-10-19T03:41:47.680Z,101151.31
2022-10-19T03:44:14.357Z,101157.88
2022-10-19T03:46:41.252Z,101160.94
2022-10-19T03:49:09.337Z,101149.13
2022-10-19T03:51:36.232Z,101155.81
2022-10-19T03:54:06.100Z,101151.97
2022-10-19T03:56:34.080Z,101158.94
2022-10-19T03:59:02.516Z,101155.81
2022-10-19T04:01:41.391Z,101156.16
2022-10-19T04:04:12.162Z,101166.53
2022-10-19T04:06:41.218Z,101167.88
2022-10-19T04:09:09.358Z,101164.53
2022-10-19T04:11:36.605Z,101167.03
2022-10-19T04:14:03.842Z,101168.22
2022-10-19T04:16:32.226Z,101172.56
2022-10-19T04:18:59.510Z,101169.38
2022-10-19T04:21:33.483Z,101172.41
2022-10-19T04:24:04.996Z,101170.72
2022-10-19T04:26:32.480Z,101169.38
2022-10-19T04:29:00.428Z,101161.88
2022-10-19T04:31:28.671Z,101158.34
2022-10-19T04:33:56.364Z,101165.72
2022-10-19T04:36:23.995Z,101158.03
2022-10-19T04:38:51.021Z,101161.88
2022-10-19T04:41:20.103Z,101165.03
2022-10-19T04:43:47.904Z,101160.53
2022-10-19T04:46:19.845Z,101164.56
2022-10-19T04:48:48.284Z,101167.41
2022-10-19T04:51:15.859Z,101163.69
2022-10-19T04:53:44.099Z,101181.44
2022-10-19T04:56:22.495Z,101174.09
2022-10-19T04:58:49.586Z,101172.75
2022-10-19T05:01:20.869Z,101172.06
2022-10-19T05:03:48.626Z,101179.25
2022-10-19T05:06:16.168Z,101165.38
2022-10-19T05:08:42.865Z,101170.72
2022-10-19T05:11:14.406Z,101171.06
2022-10-19T05:13:42.701Z,101166.72
2022-10-19T05:16:12.750Z,101162.38
2022-10-19T05:18:40.000Z,101175.41
2022-10-19T05:21:10.087Z,101175.56
2022-10-19T05:23:37.184Z,101171.91
2022-10-19T05:26:06.616Z,101184.28
2022-10-19T05:28:33.964Z,101188.78
2022-10-19T05:31:09.920Z,101185.09
2022-10-19T05:33:37.672Z,101192.28
2022-10-19T05:36:20.974Z,101193.44
2022-10-19T05:38:50.034Z,101201.31
2022-10-19T05:41:17.329Z,101197.13
2022-10-19T05:43:45.116Z,101208.69
2022-10-19T05:46:14.421Z,101197.66
2022-10-19T05:48:41.669Z,101202.13
2022-10-19T05:51:11.998Z,101196.63
2022-10-19T05:56:17.306Z,101194.13
2022-10-19T05:58:44.766Z,101199.81
2022-10-19T06:01:12.665Z,101200.78
2022-10-19T06:03:39.349Z,101197.59
2022-10-19T06:06:07.946Z,101213.00
2022-10-19T06:08:35.176Z,101216.84
2022-10-19T06:11:33.934Z,101231.91
2022-10-19T06:14:02.573Z,101229.91
2022-10-19T06:16:30.918Z,101230.06
2022-10-19T06:18:58.188Z,101229.38
2022-10-19T06:21:27.321Z,101237.56
2022-10-19T06:23:56.823Z,101232.56
2022-10-19T06:26:24.547Z,101232.22
2022-10-19T06:28:52.109Z,101231.53
2022-10-19T06:31:18.770Z,101244.41
2022-10-19T06:33:49.211Z,101239.03
2022-10-19T06:36:19.497Z,101246.38
2022-10-19T06:38:46.967Z,101239.69
2022-10-19T06:41:14.189Z,101226.09
2022-10-19T06:43:43.050Z,101239.34
2022-10-19T06:46:17.530Z,101230.28
2022-10-19T06:48:44.266Z,101238.66
2022-10-19T06:51:12.035Z,101238.13
2022-10-19T06:53:38.829Z,101239.81
2022-10-19T06:56:06.774Z,101250.66
2022-10-19T06:58:38.261Z,101257.53
2022-10-19T07:01:07.760Z,101248.47
2022-10-19T07:03:35.648Z,101254.84
2022-10-19T07:06:05.490Z,101265.38
2022-10-19T07:08:32.627Z,101255.81
2022-10-19T07:11:02.641Z,101268.53
2022-10-19T07:13:30.431Z,101258.97
2022-10-19T07:16:07.018Z,101260.97
2022-10-19T07:18:35.346Z,101266.66
2022-10-19T07:21:04.704Z,101275.34
2022-10-19T07:23:33.133Z,101277.81
2022-10-19T07:26:05.411Z,101289.84
2022-10-19T07:28:32.407Z,101287.66
2022-10-19T07:30:59.127Z,101291.16
2022-10-19T07:33:26.109Z,101297.53
2022-10-19T07:35:59.406Z,101285.81
2022-10-19T07:38:26.092Z,101290.84
2022-10-19T07:41:14.170Z,101287.34
2022-10-19T07:43:43.125Z,101285.13
2022-10-19T07:46:13.467Z,101291.81
2022-10-19T07:48:40.156Z,101293.31
2022-10-19T07:51:08.894Z,101295.66
2022-10-19T07:53:36.579Z,101303.06
2022-10-19T07:56:09.174Z,101296.34
2022-10-19T07:58:36.634Z,101307.91
2022-10-19T08:01:06.381Z,101302.34
2022-10-19T08:06:22.015Z,101306.03
2022-10-19T08:08:49.488Z,101300.31
2022-10-19T08:11:23.638Z,101308.50
2022-10-19T08:13:50.726Z,101288.50
2022-10-19T08:16:28.604Z,101291.66
2022-10-19T08:19:01.230Z,101283.94
2022-10-19T08:21:29.189Z,101284.22
2022-10-19T08:23:56.109Z,101277.97
2022-10-19T08:26:23.202Z,101277.97
2022-10-19T08:28:49.920Z,101278.47
2022-10-19T08:31:22.242Z,101288.66
2022-10-19T08:33:50.620Z,101284.78
2022-10-19T08:36:19.670Z,101292.09
2022-10-19T08:38:48.593Z,101283.50
2022-10-19T08:41:34.257Z,101289.66
2022-10-19T08:44:19.137Z,101287.22
2022-10-19T08:47:14.059Z,101279.38
2022-10-19T08:49:41.864Z,101280.66
2022-10-19T08:52:20.206Z,101278.47
2022-10-19T08:54:58.878Z,101273.03
2022-10-19T08:57:34.846Z,101280.19
2022-10-19T09:00:20.986Z,101286.22
2022-10-19T09:03:31.918Z,101279.47
2022-10-19T09:06:19.928Z,101271.41
2022-10-19T09:08:49.939Z,101270.31
2022-10-19T09:11:22.703Z,101278.66
2022-10-19T09:14:04.663Z,101282.97
2022-10-19T09:16:33.038Z,101274.09
2022-10-19T09:18:59.710Z,101278.38
2022-10-19T09:21:46.312Z,101277.16
2022-10-19T09:24:20.091Z,101281.78
2022-10-19T09:26:53.703Z,101279.38
2022-10-19T09:29:30.009Z,101274.00
2022-10-19T09:32:00.624Z,101269.94
2022-10-19T09:34:33.473Z,101284.00
2022-10-19T09:37:00.957Z,101289.75
2022-10-19T09:39:29.943Z,101293.94
2022-10-19T09:42:08.365Z,101295.41
2022-10-19T09:44:35.038Z,101293.16
2022-10-19T09:47:20.636Z,101298.34
2022-10-19T09:49:48.941Z,101289.56
2022-10-19T09:52:39.467Z,101296.22
2022-10-19T09:55:15.785Z,101291.28
2022-10-19T09:57:46.878Z,101290.56
2022-10-19T10:00:22.296Z,101283.78
2022-10-19T10:02:54.402Z,101282.84
2022-10-19T10:05:36.683Z,101275.44
2022-10-19T10:08:05.077Z,101273.44
2022-10-19T10:10:38.447Z,101267.13
2022-10-19T10:13:06.114Z,101271.53
2022-10-19T10:15:44.200Z,101266.16
2022-10-19T10:18:16.765Z,101273.69
2022-10-19T10:21:04.909Z,101274.16
2022-10-19T10:23:36.429Z,101266.16
2022-10-19T10:26:04.377Z,101262.41
2022-10-19T10:28:31.524Z,101270.81
2022-10-19T10:31:04.928Z,101265.53
2022-10-19T10:33:49.207Z,101257.06
2022-10-19T10:36:15.913Z,101249.00
2022-10-19T10:38:47.364Z,101244.16
2022-10-19T10:41:20.206Z,101238.22
2022-10-19T10:44:04.617Z,101236.84
2022-10-19T10:46:39.422Z,101232.72
2022-10-19T10:49:16.725Z,101237.53
2022-10-19T10:51:50.658Z,101225.53
2022-10-19T10:54:31.395Z,101231.63
2022-10-19T10:57:20.029Z,101213.38
2022-10-19T10:59:49.814Z,101219.00
2022-10-19T11:02:31.891Z,101215.66
2022-10-19T11:05:17.634Z,101201.97
2022-10-19T11:07:48.383Z,101214.00
2022-10-19T11:10:44.296Z,101210.03
2022-10-19T11:13:13.985Z,101214.66
2022-10-19T11:15:59.001Z,101208.00
2022-10-19T11:18:32.440Z,101204.06
2022-10-19T11:21:07.381Z,101193.44
2022-10-19T11:23:49.257Z,101188.69
2022-10-19T11:26:53.724Z,101186.66
2022-10-19T11:29:55.725Z,101184.31
2022-10-19T11:32:48.114Z,101178.31
2022-10-19T11:35:50.373Z,101185.16
2022-10-19T11:38:35.936Z,101177.00
2022-10-19T11:41:38.925Z,101181.88
2022-10-19T11:44:26.369Z,101173.97
2022-10-19T11:47:08.167Z,101177.22
2022-10-19T11:50:16.329Z,101166.41
2022-10-19T11:53:08.048Z,101169.19
2022-10-19T11:56:13.594Z,101160.88
2022-10-19T11:59:05.646Z,101159.88
2022-10-19T12:02:05.195Z,101159.34
2022-10-19T12:04:37.756Z,101150.19
2022-10-19T12:07:16.585Z,101149.72
2022-10-19T12:09:55.146Z,101147.66
2022-10-19T12:12:38.879Z,101144.81
2022-10-19T12:15:18.859Z,101131.72
2022-10-19T12:17:50.165Z,101140.63
2022-10-19T12:20:24.929Z,101138.50
2022-10-19T12:22:51.962Z,101139.13
2022-10-19T12:25:20.036Z,101131.19
2022-10-19T12:27:49.186Z,101133.66
2022-10-19T12:30:22.469Z,101124.50
2022-10-19T12:33:06.582Z,101128.63
2022-10-19T12:35:53.518Z,101131.22
2022-10-19T12:38:50.914Z,101118.81
2022-10-19T12:41:24.938Z,101128.31
2022-10-19T12:44:13.130Z,101129.44
2022-10-19T12:47:00.846Z,101113.88
2022-10-19T12:49:34.486Z,101112.66
2022-10-19T12:52:02.421Z,101111.66
2022-10-19T12:54:32.631Z,101112.88
2022-10-19T12:57:01.806Z,101108.91
2022-10-19T12:59:37.213Z,101116.34
2022-10-19T13:02:24.380Z,101114.13
2022-10-19T13:04:54.403Z,101112.25
2022-10-19T13:07:21.191Z,101113.56
2022-10-19T13:09:48.890Z,101115.09
2022-10-19T13:12:25.619Z,101107.13
2022-10-19T13:15:00.997Z,101112.88
2022-10-19T13:17:36.656Z,101116.13
2022-10-19T13:20:15.746Z,101112.72
2022-10-19T13:22:45.055Z,101118.97
2022-10-19T13:25:24.256Z,101117.13
2022-10-19T13:27:52.859Z,101115.06
2022-10-19T13:30:44.118Z,101126.00
2022-10-19T13:33:26.028Z,101118.75
2022-10-19T13:35:58.847Z,101117.75
2022-10-19T13:38:32.966Z,101118.50
2022-10-19T13:41:06.965Z,101123.84
2022-10-19T13:43:55.416Z,101124.94
2022-10-19T13:46:31.928Z,101126.16
2022-10-19T13:49:02.286Z,101129.91
2022-10-19T13:51:47.465Z,101135.84
2022-10-19T13:54:19.923Z,101130.97
2022-10-19T13:56:49.584Z,101137.88
2022-10-19T13:59:59.638Z,101117.63
2022-10-19T14:03:06.613Z,101110.06
2022-10-19T14:05:54.832Z,101117.28
2022-10-19T14:08:43.288Z,101121.53
2022-10-19T14:11:32.114Z,101115.22
2022-10-19T14:14:11.121Z,101110.34
2022-10-19T14:17:01.193Z,101101.59
2022-10-19T14:19:34.180Z,101107.75
2022-10-19T14:22:17.371Z,101103.19
2022-10-19T14:24:44.225Z,101106.88
2022-10-19T14:27:18.520Z,101096.22
2022-10-19T14:29:48.122Z,101095.56
2022-10-19T14:32:15.666Z,101095.13
2022-10-19T14:34:44.723Z,101094.34
2022-10-19T14:37:23.526Z,101092.69
2022-10-19T14:40:08.569Z,101094.47
2022-10-19T14:42:43.854Z,101093.38
2022-10-19T14:45:23.341Z,101088.38
2022-10-19T14:48:03.842Z,101089.66
2022-10-19T14:50:39.564Z,101093.63
2022-10-19T14:53:37.348Z,101099.47
2022-10-19T14:56:15.386Z,101097.72
2022-10-19T14:58:51.325Z,101096.44
2022-10-19T15:01:20.225Z,101091.66
2022-10-19T15:03:49.010Z,101092.16
2022-10-19T15:06:42.546Z,101103.09
2022-10-19T15:09:37.372Z,101110.31
2022-10-19T15:12:19.790Z,101114.00
2022-10-19T15:14:47.961Z,101115.28
2022-10-19T15:17:22.975Z,101112.56
2022-10-19T15:19:49.885Z,101114.69
2022-10-19T15:22:20.262Z,101097.91
2022-10-19T15:25:07.729Z,101100.50
2022-10-19T15:27:34.371Z,101094.75
2022-10-19T15:30:22.930Z,101097.47
2022-10-19T15:33:01.792Z,101093.94
2022-10-19T15:35:35.146Z,101102.13
2022-10-19T15:38:10.163Z,101102.84
2022-10-19T15:40:40.770Z,101104.97
2022-10-19T15:43:34.956Z,101109.97
2022-10-19T15:46:05.409Z,101107.75
2022-10-19T15:48:49.942Z,101115.88
2022-10-19T15:51:25.499Z,101121.59
2022-10-19T15:53:59.928Z,101120.94
2022-10-19T15:56:29.246Z,101116.50
2022-10-19T15:58:58.314Z,101120.75
2022-10-19T16:01:27.366Z,101126.44
2022-10-19T16:03:54.916Z,101126.50
2022-10-19T16:06:24.809Z,101130.75
2022-10-19T16:08:51.402Z,101127.78
2022-10-19T16:11:21.264Z,101128.63
2022-10-19T16:13:47.972Z,101126.81
2022-10-19T16:16:33.444Z,101133.53
2022-10-19T16:19:00.856Z,101134.06
2022-10-19T16:21:30.754Z,101127.75
2022-10-19T16:23:58.158Z,101132.81
2022-10-19T16:26:26.278Z,101139.53
2022-10-19T16:28:54.265Z,101144.59
2022-10-19T16:31:21.653Z,101134.56
2022-10-19T16:33:48.333Z,101141.91
2022-10-19T16:36:15.438Z,101138.56
2022-10-19T16:38:42.100Z,101141.97
2022-10-19T16:41:10.860Z,101147.88
2022-10-19T16:43:37.985Z,101146.91
2022-10-19T16:46:05.641Z,101147.13
2022-10-19T16:48:32.849Z,101149.97
2022-10-19T16:51:05.683Z,101153.19
2022-10-19T16:53:33.562Z,101166.81
2022-10-19T16:56:08.938Z,101162.47
2022-10-19T16:58:37.314Z,101159.50
2022-10-19T17:01:08.364Z,101163.00
2022-10-19T17:03:35.760Z,101174.91
2022-10-19T17:06:03.804Z,101168.72
2022-10-19T17:08:37.197Z,101178.09
2022-10-19T17:11:23.684Z,101180.59
2022-10-19T17:13:52.749Z,101191.09
2022-10-19T17:16:21.304Z,101193.41
2022-10-19T17:18:48.620Z,101190.75
2022-10-19T17:21:19.039Z,101190.22
2022-10-19T17:23:46.360Z,101195.03
2022-10-19T17:26:13.726Z,101201.56
2022-10-19T17:28:40.801Z,101202.78
2022-10-19T17:31:12.860Z,101204.25
2022-10-19T17:33:40.942Z,101204.38
2022-10-19T17:36:11.984Z,101206.19
2022-10-19T17:38:39.570Z,101205.22
2022-10-19T17:41:16.485Z,101208.22
2022-10-19T17:43:45.522Z,101206.78
2022-10-19T17:46:14.550Z,101212.06
2022-10-19T17:48:43.074Z,101222.13
2022-10-19T17:51:16.835Z,101221.66
2022-10-19T17:53:45.492Z,101221.88
2022-10-19T17:56:18.055Z,101227.72
2022-10-19T17:58:45.363Z,101234.56
2022-10-19T18:01:13.026Z,101231.72
2022-10-19T18:03:40.303Z,101229.56
2022-10-19T18:06:10.870Z,101238.94
2022-10-19T18:08:40.809Z,101235.75
2022-10-19T18:11:13.154Z,101241.75
2022-10-19T18:13:40.528Z,101242.75
2022-10-19T18:16:13.306Z,101245.06
2022-10-19T18:18:42.279Z,101261.28
2022-10-19T18:21:11.532Z,101252.25
2022-10-19T18:23:38.991Z,101256.63
2022-10-19T18:26:13.490Z,101261.81
2022-10-19T18:28:40.634Z,101254.25
2022-10-19T18:31:16.107Z,101262.59
2022-10-19T18:33:43.122Z,101268.97
2022-10-19T18:36:10.803Z,101266.47
2022-10-19T18:38:38.452Z,101264.31
2022-10-19T18:41:25.912Z,101267.63
2022-10-19T18:43:55.423Z,101255.59
2022-10-19T18:46:23.409Z,101264.31
2022-10-19T18:48:50.209Z,101280.38
2022-10-19T18:51:18.499Z,101276.88
2022-10-19T18:53:46.370Z,101283.88
2022-10-19T18:56:15.582Z,101281.72
2022-10-19T18:58:43.246Z,101280.72
2022-10-19T19:01:24.221Z,101272.34
2022-10-19T19:03:53.300Z,101288.41
2022-10-19T19:06:30.401Z,101288.06
2022-10-19T19:08:58.834Z,101290.44
2022-10-19T19:11:29.582Z,101294.78
2022-10-19T19:14:06.251Z,101302.84
2022-10-19T19:16:36.500Z,101298.97
2022-10-19T19:19:04.635Z,101310.34
2022-10-19T19:21:32.006Z,101315.03
2022-10-19T19:24:00.769Z,101309.84
2022-10-19T19:26:30.589Z,101308.19
2022-10-19T19:29:00.051Z,101303.16
2022-10-19T19:31:26.756Z,101317.22
2022-10-19T19:33:53.408Z,101316.53
2022-10-19T19:36:21.008Z,101327.75
2022-10-19T19:38:50.549Z,101326.06
2022-10-19T19:41:17.742Z,101334.63
2022-10-19T19:43:44.901Z,101341.31
2022-10-19T19:46:17.402Z,101344.13
2022-10-19T19:48:46.326Z,101352.31
2022-10-19T19:51:16.787Z,101351.63
2022-10-19T19:53:44.075Z,101351.97
2022-10-19T19:56:12.312Z,101353.47
2022-10-19T19:58:39.446Z,101362.50
2022-10-19T20:01:19.219Z,101360.13
2022-10-19T20:03:46.373Z,101356.13
2022-10-19T20:06:18.679Z,101365.81
2022-10-19T20:08:47.640Z,101373.34
2022-10-19T20:11:16.227Z,101372.31
2022-10-19T20:13:44.543Z,101371.31
2022-10-19T20:16:13.736Z,101378.81
2022-10-19T20:18:41.451Z,101374.28
2022-10-19T20:21:08.184Z,101387.28
2022-10-19T20:23:35.073Z,101404.50
2022-10-19T20:26:02.109Z,101393.63
2022-10-19T20:28:32.110Z,101395.47
2022-10-19T20:31:06.571Z,101386.94
2022-10-19T20:33:35.195Z,101386.41
2022-10-19T20:36:13.310Z,101382.22
2022-10-19T20:38:40.740Z,101386.03
2022-10-19T20:41:09.481Z,101394.75
2022-10-19T20:43:37.624Z,101394.00
2022-10-19T20:46:05.948Z,101386.84
2022-10-19T20:48:33.081Z,101386.69
2022-10-19T20:51:21.347Z,101384.00
2022-10-19T20:53:50.263Z,101381.63
2022-10-19T20:56:23.213Z,101385.94
2022-10-19T20:59:05.063Z,101385.41
2022-10-19T21:01:33.910Z,101393.03
2022-10-19T21:04:03.350Z,101404.22
2022-10-19T21:06:31.823Z,101404.72
2022-10-19T21:08:59.817Z,101409.38
2022-10-19T21:11:35.468Z,101403.66
2022-10-19T21:14:05.984Z,101406.34
2022-10-19T21:16:34.101Z,101403.88
2022-10-19T21:19:02.780Z,101401.53
2022-10-19T21:21:32.177Z,101397.34
2022-10-19T21:24:01.278Z,101404.97
2022-10-19T21:26:28.648Z,101400.41
2022-10-19T21:28:55.821Z,101401.88
2022-10-19T21:31:25.002Z,101403.69
2022-10-19T21:33:52.211Z,101415.53
2022-10-19T21:36:21.086Z,101425.19
2022-10-19T21:38:48.136Z,101417.28
2022-10-19T21:41:20.959Z,101412.31
2022-10-19T21:43:50.674Z,101412.16
2022-10-19T21:46:19.659Z,101406.59
2022-10-19T21:48:46.842Z,101404.25
2022-10-19T21:51:33.783Z,101403.78
2022-10-19T21:54:01.640Z,101408.22
2022-10-19T21:56:28.630Z,101414.53
2022-10-19T21:58:56.017Z,101412.25
2022-10-19T22:01:26.090Z,101409.38
2022-10-19T22:04:04.605Z,101397.16
2022-10-19T22:06:33.395Z,101392.13
2022-10-19T22:09:01.509Z,101394.81
2022-10-19T22:11:28.816Z,101385.50
2022-10-19T22:13:57.263Z,101406.19
2022-10-19T22:16:25.104Z,101398.50
2022-10-19T22:18:52.686Z,101393.16
2022-10-19T22:21:23.073Z,101391.63
2022-10-19T22:24:00.588Z,101403.81
2022-10-19T22:26:30.359Z,101401.59
2022-10-19T22:28:58.558Z,101409.66
2022-10-19T22:31:27.202Z,101402.22
2022-10-19T22:33:53.947Z,101395.97
2022-10-19T22:36:20.750Z,101394.72
2022-10-19T22:38:47.835Z,101404.38
2022-10-19T22:42:10.560Z,101406.69
2022-10-19T22:44:49.300Z,101403.63
2022-10-19T22:47:16.040Z,101406.59
2022-10-19T22:49:42.919Z,101414.28
2022-10-19T22:52:09.686Z,101419.81
2022-10-19T22:54:36.372Z,101427.50
2022-10-19T22:57:03.612Z,101422.63
2022-10-19T22:59:33.761Z,101405.22
2022-10-19T23:02:06.403Z,101406.78
2022-10-19T23:04:36.766Z,101415.38
2022-10-19T23:07:05.079Z,101424.22
2022-10-19T23:09:34.275Z,101434.78
2022-10-19T23:12:05.347Z,101431.56
2022-10-19T23:14:35.643Z,101432.94
2022-10-19T23:17:04.670Z,101441.81
2022-10-19T23:19:35.906Z,101438.19
2022-10-19T23:22:09.177Z,101429.50
2022-10-19T23:24:39.272Z,101429.63
2022-10-19T23:27:09.196Z,101432.59
2022-10-19T23:29:40.664Z,101437.13
2022-10-19T23:32:12.388Z,101431.66
2022-10-19T23:34:47.577Z,101435.19
2022-10-19T23:37:17.049Z,101426.63
2022-10-19T23:39:58.253Z,101434.63
2022-10-19T23:42:25.443Z,101426.09
2022-10-19T23:44:54.682Z,101441.81
2022-10-19T23:47:22.558Z,101439.03
2022-10-19T23:49:49.177Z,101437.91
2022-10-19T23:52:16.975Z,101446.78
2022-10-19T23:54:45.470Z,101450.84
2022-10-19T23:57:16.955Z,101456.28
2022-10-19T23:59:46.469Z,101457.19
